createdAt,value
2023-12-29T00:00:44.398Z,100147.73
2023-12-29T00:03:32.694Z,100141.97
2023-12-29T00:06:03.916Z,100132.45
2023-12-29T00:08:32.829Z,100135.28
2023-12-29T00:11:00.922Z,100138.44
2023-12-29T00:13:28.962Z,100134.77
2023-12-29T00:15:57.184Z,100139.32
2023-12-29T00:18:25.913Z,100141.64
2023-12-29T00:21:06.090Z,100140.41
2023-12-29T00:23:35.885Z,100136.91
2023-12-29T00:26:04.105Z,100136.02
2023-12-29T00:28:32.321Z,100134.75
2023-12-29T00:31:02.639Z,100140.92
2023-12-29T00:33:33.353Z,100137.85
2023-12-29T00:36:01.488Z,100132.06
2023-12-29T00:38:30.502Z,100129.75
2023-12-29T00:40:58.609Z,100129.31
2023-12-29T00:43:26.739Z,100133.52
2023-12-29T00:45:55.509Z,100134.58
2023-12-29T00:48:23.739Z,100131.30
2023-12-29T00:50:51.868Z,100129.65
2023-12-29T00:53:19.985Z,100134.14
2023-12-29T00:55:48.133Z,100136.42
2023-12-29T00:58:16.387Z,100133.58
2023-12-29T01:00:44.791Z,100135.94
2023-12-29T01:03:13.021Z,100132.58
2023-12-29T01:05:41.489Z,100132.93
2023-12-29T01:08:09.712Z,100127.92
2023-12-29T01:10:37.933Z,100125.83
2023-12-29T01:13:06.058Z,100119.83
2023-12-29T01:15:34.238Z,100124.61
2023-12-29T01:18:02.571Z,100116.33
2023-12-29T01:20:30.876Z,100118.56
2023-12-29T01:22:58.960Z,100120.80
2023-12-29T01:25:27.113Z,100116.54
2023-12-29T01:27:56.547Z,100110.34
2023-12-29T01:30:24.744Z,100100.25
2023-12-29T01:32:52.959Z,100102.59
2023-12-29T01:35:21.163Z,100106.67
2023-12-29T01:37:49.304Z,100102.89
2023-12-29T01:40:18.537Z,100100.76
2023-12-29T01:42:46.804Z,100096.36
2023-12-29T01:45:23.324Z,100100.23
2023-12-29T01:47:52.240Z,100093.51
2023-12-29T01:52:11.519Z,100080.25
2023-12-29T01:54:42.097Z,100069.27
2023-12-29T01:57:10.231Z,100068.55
2023-12-29T01:59:39.346Z,100063.40
2023-12-29T02:02:08.025Z,100056.66
2023-12-29T02:04:41.064Z,100049.63
2023-12-29T02:07:09.285Z,100045.64
2023-12-29T02:09:37.515Z,100042.78
2023-12-29T02:12:06.492Z,100044.96
2023-12-29T02:14:34.827Z,100043.14
2023-12-29T02:17:18.755Z,100039.71
2023-12-29T02:19:48.374Z,100039.42
2023-12-29T02:22:16.917Z,100031.30
2023-12-29T02:24:47.441Z,100028.80
2023-12-29T02:27:34.733Z,100030.39
2023-12-29T02:30:11.865Z,100027.54
2023-12-29T02:32:43.349Z,100029.64
2023-12-29T02:35:23.433Z,100029.27
2023-12-29T02:37:51.530Z,100026.58
2023-12-29T02:40:19.763Z,100020.20
2023-12-29T02:42:51.008Z,100022.88
2023-12-29T02:45:19.429Z,100021.02
2023-12-29T02:47:47.720Z,100016.94
2023-12-29T02:50:16.882Z,100016.45
2023-12-29T02:52:45.028Z,100014.22
2023-12-29T02:55:13.180Z,100011.66
2023-12-29T02:57:41.421Z,100013.89
2023-12-29T03:00:09.817Z,100015.71
2023-12-29T03:02:38.006Z,100018.09
2023-12-29T03:05:07.370Z,100020.13
2023-12-29T03:07:36.328Z,100025.05
2023-12-29T03:10:04.804Z,100018.83
2023-12-29T03:12:32.956Z,100020.73
2023-12-29T03:15:01.846Z,100016.61
2023-12-29T03:17:29.965Z,100020.73
2023-12-29T03:19:58.177Z,100013.21
2023-12-29T03:22:26.314Z,100007.51
2023-12-29T03:24:54.530Z,100003.98
2023-12-29T03:27:22.717Z,100008.54
2023-12-29T03:29:50.817Z,100006.60
2023-12-29T03:32:19.250Z,100005.04
2023-12-29T03:34:47.440Z,100000.39
2023-12-29T03:37:15.677Z,100003.47
2023-12-29T03:39:43.953Z,99997.95
2023-12-29T03:42:12.961Z,99989.89
2023-12-29T03:44:41.089Z,99988.16
2023-12-29T03:47:11.916Z,99984.48
2023-12-29T03:49:40.095Z,99985.96
2023-12-29T03:52:08.212Z,99987.92
2023-12-29T03:54:36.816Z,99988.38
2023-12-29T03:57:05.172Z,99987.66
2023-12-29T03:59:33.258Z,99983.34
2023-12-29T04:02:01.416Z,99979.34
2023-12-29T04:04:29.551Z,99978.79
2023-12-29T04:06:57.709Z,99981.10
2023-12-29T04:09:25.760Z,99980.05
2023-12-29T04:11:54.016Z,99981.45
2023-12-29T04:14:22.083Z,99980.59
2023-12-29T04:16:50.511Z,99980.33
2023-12-29T04:19:18.710Z,99978.08
2023-12-29T04:21:46.918Z,99973.12
2023-12-29T04:24:15.361Z,99975.48
2023-12-29T04:26:43.817Z,99973.09
2023-12-29T04:29:14.016Z,99968.29
2023-12-29T04:31:42.818Z,99960.27
2023-12-29T04:34:10.943Z,99956.79
2023-12-29T04:36:39.086Z,99951.64
2023-12-29T04:39:10.148Z,99952.10
2023-12-29T04:41:38.291Z,99951.55
2023-12-29T04:44:06.413Z,99951.99
2023-12-29T04:46:34.889Z,99951.11
2023-12-29T04:49:03.781Z,99952.63
2023-12-29T04:51:32.209Z,99958.21
2023-12-29T04:54:00.324Z,99950.59
2023-12-29T04:56:28.422Z,99955.14
2023-12-29T04:58:57.856Z,99952.66
2023-12-29T05:01:26.132Z,99950.39
2023-12-29T05:03:54.335Z,99950.23
2023-12-29T05:06:22.450Z,99945.91
2023-12-29T05:08:50.517Z,99946.23
2023-12-29T05:11:18.617Z,99947.84
2023-12-29T05:13:46.900Z,99945.38
2023-12-29T05:16:14.995Z,99945.05
2023-12-29T05:18:45.459Z,99941.86
2023-12-29T05:21:19.791Z,99935.02
2023-12-29T05:23:49.022Z,99933.17
2023-12-29T05:26:17.183Z,99935.96
2023-12-29T05:28:45.360Z,99932.92
2023-12-29T05:31:13.905Z,99933.85
2023-12-29T05:33:42.172Z,99931.82
2023-12-29T05:36:11.210Z,99936.08
2023-12-29T05:38:39.870Z,99939.16
2023-12-29T05:41:08.224Z,99939.78
2023-12-29T05:43:36.307Z,99936.91
2023-12-29T05:46:04.893Z,99935.88
2023-12-29T05:48:33.215Z,99935.48
2023-12-29T05:51:10.493Z,99939.55
2023-12-29T05:53:38.667Z,99946.02
2023-12-29T05:56:06.876Z,99938.09
2023-12-29T05:58:34.943Z,99936.94
2023-12-29T06:01:03.328Z,99934.10
2023-12-29T06:03:31.546Z,99937.20
2023-12-29T06:05:59.655Z,99935.16
2023-12-29T06:08:27.758Z,99932.88
2023-12-29T06:10:55.834Z,99927.54
2023-12-29T06:13:24.425Z,99916.80
2023-12-29T06:15:52.626Z,99915.88
2023-12-29T06:18:20.814Z,99907.96
2023-12-29T06:20:49.110Z,99907.16
2023-12-29T06:23:18.424Z,99907.33
2023-12-29T06:25:46.420Z,99908.91
2023-12-29T06:28:14.589Z,99915.00
2023-12-29T06:30:42.860Z,99913.52
2023-12-29T06:33:11.791Z,99912.58
2023-12-29T06:35:40.538Z,99906.64
2023-12-29T06:38:08.796Z,99907.11
2023-12-29T06:40:36.966Z,99912.93
2023-12-29T06:43:05.436Z,99910.41
2023-12-29T06:45:33.525Z,99910.17
2023-12-29T06:48:01.967Z,99919.64
2023-12-29T06:50:30.310Z,99916.36
2023-12-29T06:52:58.375Z,99918.06
2023-12-29T06:55:26.853Z,99922.23
2023-12-29T06:57:55.006Z,99916.20
2023-12-29T07:00:23.256Z,99915.92
2023-12-29T07:02:51.494Z,99924.18
2023-12-29T07:05:19.662Z,99925.66
2023-12-29T07:07:48.013Z,99919.02
2023-12-29T07:10:16.300Z,99921.15
2023-12-29T07:12:44.662Z,99915.97
2023-12-29T07:15:15.268Z,99899.20
2023-12-29T07:17:43.421Z,99889.55
2023-12-29T07:20:12.531Z,99890.09
2023-12-29T07:22:40.565Z,99891.16
2023-12-29T07:25:08.770Z,99888.23
2023-12-29T07:27:37.115Z,99882.38
2023-12-29T07:30:05.997Z,99880.21
2023-12-29T07:32:34.177Z,99883.70
2023-12-29T07:35:02.928Z,99882.20
2023-12-29T07:37:31.077Z,99879.25
2023-12-29T07:39:59.185Z,99875.09
2023-12-29T07:42:27.394Z,99875.36
2023-12-29T07:44:57.514Z,99872.52
2023-12-29T07:47:25.603Z,99868.73
2023-12-29T07:49:53.754Z,99872.30
2023-12-29T07:52:21.889Z,99870.09
2023-12-29T07:54:50.566Z,99865.27
2023-12-29T07:57:18.651Z,99864.73
2023-12-29T07:59:46.728Z,99863.25
2023-12-29T08:02:14.809Z,99858.79
2023-12-29T08:04:43.049Z,99859.28
2023-12-29T08:07:12.071Z,99854.29
2023-12-29T08:09:40.447Z,99857.16
2023-12-29T08:12:08.585Z,99859.02
2023-12-29T08:14:36.745Z,99861.06
2023-12-29T08:17:04.809Z,99860.23
2023-12-29T08:19:33.208Z,99860.23
2023-12-29T08:22:01.542Z,99858.52
2023-12-29T08:24:29.801Z,99861.52
2023-12-29T08:26:57.964Z,99859.47
2023-12-29T08:29:26.942Z,99858.18
2023-12-29T08:31:55.029Z,99856.64
2023-12-29T08:34:24.925Z,99857.63
2023-12-29T08:36:53.219Z,99866.45
2023-12-29T08:39:21.373Z,99871.02
2023-12-29T08:41:50.822Z,99867.79
2023-12-29T08:44:19.210Z,99867.06
2023-12-29T08:46:47.276Z,99869.15
2023-12-29T08:49:15.583Z,99870.84
2023-12-29T08:51:43.737Z,99871.93
2023-12-29T08:54:12.046Z,99865.73
2023-12-29T08:56:40.174Z,99858.20
2023-12-29T08:59:08.342Z,99860.71
2023-12-29T09:01:36.495Z,99856.42
2023-12-29T09:04:04.997Z,99848.96
2023-12-29T09:06:33.295Z,99846.70
2023-12-29T09:09:01.495Z,99854.37
2023-12-29T09:11:29.893Z,99854.66
2023-12-29T09:13:58.026Z,99861.77
2023-12-29T09:16:26.138Z,99852.96
2023-12-29T09:18:54.210Z,99849.90
2023-12-29T09:21:22.402Z,99853.14
2023-12-29T09:23:51.682Z,99852.61
2023-12-29T09:26:19.871Z,99848.36
2023-12-29T09:28:48.660Z,99846.96
2023-12-29T09:31:16.974Z,99848.77
2023-12-29T09:33:45.249Z,99849.86
2023-12-29T09:36:13.367Z,99846.40
2023-12-29T09:38:42.891Z,99844.80
2023-12-29T09:41:12.839Z,99843.91
2023-12-29T09:43:40.895Z,99835.96
2023-12-29T09:46:09.746Z,99830.95
2023-12-29T09:48:38.258Z,99829.48
2023-12-29T09:51:06.520Z,99827.17
2023-12-29T09:53:35.776Z,99828.98
2023-12-29T09:56:04.679Z,99831.46
2023-12-29T09:58:32.749Z,99830.77
2023-12-29T10:01:00.919Z,99836.05
2023-12-29T10:03:29.026Z,99837.94
2023-12-29T10:05:58.145Z,99839.14
2023-12-29T10:08:27.123Z,99842.25
2023-12-29T10:10:56.844Z,99832.44
2023-12-29T10:13:25.096Z,99832.33
2023-12-29T10:16:00.071Z,99834.42
2023-12-29T10:18:32.195Z,99832.17
2023-12-29T10:21:04.424Z,99830.80
2023-12-29T10:23:45.227Z,99827.25
2023-12-29T10:26:14.574Z,99826.56
2023-12-29T10:28:42.602Z,99817.00
2023-12-29T10:31:11.326Z,99818.33
2023-12-29T10:33:39.847Z,99810.60
2023-12-29T10:36:08.475Z,99812.33
2023-12-29T10:38:41.080Z,99804.77
2023-12-29T10:41:16.487Z,99803.38
2023-12-29T10:43:45.911Z,99810.56
2023-12-29T10:46:14.451Z,99814.14
2023-12-29T10:48:42.661Z,99811.53
2023-12-29T10:51:10.815Z,99816.65
2023-12-29T10:53:41.556Z,99819.80
2023-12-29T10:56:29.563Z,99823.05
2023-12-29T10:59:04.879Z,99816.30
2023-12-29T11:01:36.968Z,99809.41
2023-12-29T11:04:06.686Z,99806.89
2023-12-29T11:06:42.557Z,99808.38
2023-12-29T11:09:11.898Z,99799.11
2023-12-29T11:11:40.236Z,99803.00
2023-12-29T11:14:10.096Z,99790.29
2023-12-29T11:16:38.632Z,99792.30
2023-12-29T11:19:07.568Z,99789.08
2023-12-29T11:21:35.823Z,99791.64
2023-12-29T11:24:04.053Z,99777.40
2023-12-29T11:26:32.156Z,99775.85
2023-12-29T11:29:00.338Z,99770.04
2023-12-29T11:31:28.482Z,99769.52
2023-12-29T11:34:04.365Z,99769.05
2023-12-29T11:36:34.695Z,99761.25
2023-12-29T11:39:08.066Z,99756.32
2023-12-29T11:41:43.668Z,99754.29
2023-12-29T11:44:12.483Z,99745.77
2023-12-29T11:46:44.431Z,99745.27
2023-12-29T11:49:12.895Z,99741.80
2023-12-29T11:51:41.650Z,99738.35
2023-12-29T11:54:10.229Z,99730.36
2023-12-29T11:56:41.709Z,99728.73
2023-12-29T11:59:13.954Z,99729.23
2023-12-29T12:01:42.280Z,99720.09
2023-12-29T12:04:46.923Z,99721.34
2023-12-29T12:07:18.854Z,99713.10
2023-12-29T12:09:50.603Z,99714.21
2023-12-29T12:12:44.298Z,99720.09
2023-12-29T12:15:32.600Z,99722.14
2023-12-29T12:18:01.443Z,99734.46
2023-12-29T12:20:29.863Z,99734.08
2023-12-29T12:23:02.213Z,99738.98
2023-12-29T12:25:31.829Z,99730.41
2023-12-29T12:28:00.079Z,99739.20
2023-12-29T12:30:28.418Z,99730.36
2023-12-29T12:33:00.498Z,99729.64
2023-12-29T12:35:29.059Z,99721.23
2023-12-29T12:38:13.186Z,99727.27
2023-12-29T12:40:41.516Z,99728.65
2023-12-29T12:43:09.969Z,99723.79
2023-12-29T12:46:05.601Z,99724.73
2023-12-29T12:48:47.214Z,99725.21
2023-12-29T12:51:15.711Z,99725.31
2023-12-29T12:53:45.552Z,99723.80
2023-12-29T12:56:13.685Z,99721.15
2023-12-29T12:58:41.838Z,99720.50
2023-12-29T13:01:10.129Z,99728.77
2023-12-29T13:03:40.152Z,99727.48
2023-12-29T13:06:08.477Z,99727.38
2023-12-29T13:08:40.790Z,99727.56
2023-12-29T13:11:14.193Z,99727.72
2023-12-29T13:13:46.304Z,99730.96
2023-12-29T13:16:15.580Z,99734.86
2023-12-29T13:18:44.127Z,99730.64
2023-12-29T13:21:12.342Z,99729.55
2023-12-29T13:23:40.504Z,99727.23
2023-12-29T13:26:10.129Z,99729.66
2023-12-29T13:28:40.000Z,99730.11
2023-12-29T13:31:09.514Z,99728.96
2023-12-29T13:33:46.337Z,99720.84
2023-12-29T13:36:25.260Z,99718.72
2023-12-29T13:39:00.497Z,99724.77
2023-12-29T13:41:29.320Z,99725.38
2023-12-29T13:43:57.363Z,99728.19
2023-12-29T13:46:25.589Z,99736.34
2023-12-29T13:48:55.584Z,99737.58
2023-12-29T13:53:03.440Z,99745.00
2023-12-29T13:55:32.392Z,99745.27
2023-12-29T13:58:00.639Z,99742.88
2023-12-29T14:00:30.205Z,99743.53
2023-12-29T14:03:07.723Z,99747.52
2023-12-29T14:05:40.774Z,99742.53
2023-12-29T14:08:28.167Z,99753.13
2023-12-29T14:10:56.500Z,99755.65
2023-12-29T14:13:24.722Z,99754.83
2023-12-29T14:15:53.413Z,99763.20
2023-12-29T14:18:49.271Z,99763.58
2023-12-29T14:21:33.023Z,99759.54
2023-12-29T14:24:02.203Z,99760.08
2023-12-29T14:26:31.220Z,99760.40
2023-12-29T14:29:03.103Z,99767.69
2023-12-29T14:31:33.073Z,99770.17
2023-12-29T14:34:01.251Z,99771.84
2023-12-29T14:36:29.365Z,99768.66
2023-12-29T14:38:57.455Z,99774.44
2023-12-29T14:41:25.971Z,99773.90
2023-12-29T14:43:54.247Z,99772.08
2023-12-29T14:46:23.569Z,99772.31
2023-12-29T14:48:51.859Z,99766.94
2023-12-29T14:51:19.944Z,99755.52
2023-12-29T14:53:48.834Z,99753.50
2023-12-29T14:56:17.256Z,99747.86
2023-12-29T14:58:45.449Z,99754.10
2023-12-29T15:01:13.660Z,99757.47
2023-12-29T15:03:41.908Z,99763.40
2023-12-29T15:06:10.037Z,99776.62
2023-12-29T15:08:38.891Z,99779.31
2023-12-29T15:11:08.053Z,99783.75
2023-12-29T15:13:36.422Z,99786.15
2023-12-29T15:16:05.494Z,99781.91
2023-12-29T15:18:33.695Z,99765.63
2023-12-29T15:21:03.116Z,99760.77
2023-12-29T15:23:31.188Z,99758.06
2023-12-29T15:25:59.291Z,99761.12
2023-12-29T15:28:27.557Z,99767.25
2023-12-29T15:30:55.924Z,99769.23
2023-12-29T15:33:25.405Z,99758.86
2023-12-29T15:35:53.956Z,99763.52
2023-12-29T15:38:22.024Z,99760.41
2023-12-29T15:40:50.115Z,99758.20
2023-12-29T15:43:18.255Z,99761.04
2023-12-29T15:45:46.429Z,99763.33
2023-12-29T15:48:14.570Z,99763.04
2023-12-29T15:50:43.188Z,99752.81
2023-12-29T15:53:11.387Z,99750.56
2023-12-29T15:55:39.461Z,99748.20
2023-12-29T15:58:08.148Z,99749.08
2023-12-29T16:00:36.413Z,99753.20
2023-12-29T16:03:05.364Z,99753.04
2023-12-29T16:05:33.456Z,99742.77
2023-12-29T16:08:02.336Z,99735.64
2023-12-29T16:10:31.107Z,99740.10
2023-12-29T16:12:59.315Z,99730.73
2023-12-29T16:15:27.393Z,99733.23
2023-12-29T16:17:55.911Z,99735.30
2023-12-29T16:20:23.946Z,99740.84
2023-12-29T16:22:52.107Z,99744.73
2023-12-29T16:25:20.700Z,99744.27
2023-12-29T16:27:48.950Z,99744.36
2023-12-29T16:30:17.110Z,99743.08
2023-12-29T16:32:45.259Z,99750.39
2023-12-29T16:35:13.417Z,99754.55
2023-12-29T16:37:41.523Z,99753.38
2023-12-29T16:40:11.116Z,99749.98
2023-12-29T16:42:39.530Z,99751.30
2023-12-29T16:45:08.199Z,99745.08
2023-12-29T16:47:36.313Z,99742.66
2023-12-29T16:50:05.385Z,99738.20
2023-12-29T16:52:33.592Z,99742.55
2023-12-29T16:55:02.512Z,99737.81
2023-12-29T16:57:31.142Z,99741.10
2023-12-29T16:59:59.324Z,99747.25
2023-12-29T17:02:27.440Z,99748.02
2023-12-29T17:04:56.054Z,99741.43
2023-12-29T17:07:24.175Z,99735.80
2023-12-29T17:09:52.413Z,99734.71
2023-12-29T17:12:20.530Z,99739.58
2023-12-29T17:14:48.613Z,99734.50
2023-12-29T17:17:16.791Z,99741.42
2023-12-29T17:19:45.300Z,99735.54
2023-12-29T17:22:13.542Z,99738.40
2023-12-29T17:24:42.271Z,99736.20
2023-12-29T17:27:10.348Z,99734.85
2023-12-29T17:29:40.553Z,99744.20
2023-12-29T17:32:09.441Z,99742.71
2023-12-29T17:34:37.681Z,99740.16
2023-12-29T17:37:05.985Z,99738.84
2023-12-29T17:39:34.104Z,99743.69
2023-12-29T17:42:02.144Z,99743.75
2023-12-29T17:44:30.182Z,99734.26
2023-12-29T17:46:58.303Z,99732.54
2023-12-29T17:49:29.888Z,99726.88
2023-12-29T17:51:59.487Z,99726.02
2023-12-29T17:54:28.043Z,99727.90
2023-12-29T17:56:56.098Z,99730.36
2023-12-29T17:59:24.310Z,99730.21
2023-12-29T18:01:53.057Z,99736.38
2023-12-29T18:04:21.417Z,99735.45
2023-12-29T18:06:56.555Z,99742.79
2023-12-29T18:09:31.454Z,99740.91
2023-12-29T18:11:59.689Z,99734.54
2023-12-29T18:14:27.979Z,99733.71
2023-12-29T18:16:56.530Z,99737.92
2023-12-29T18:19:24.851Z,99737.39
2023-12-29T18:21:53.584Z,99739.86
2023-12-29T18:24:21.689Z,99732.09
2023-12-29T18:26:50.272Z,99734.13
2023-12-29T18:29:19.600Z,99736.77
2023-12-29T18:31:47.715Z,99735.37
2023-12-29T18:34:35.681Z,99731.36
2023-12-29T18:37:04.132Z,99735.11
2023-12-29T18:39:32.376Z,99733.57
2023-12-29T18:42:00.817Z,99737.23
2023-12-29T18:44:31.154Z,99736.00
2023-12-29T18:46:59.758Z,99734.55
2023-12-29T18:49:28.035Z,99732.11
2023-12-29T18:51:56.475Z,99734.85
2023-12-29T18:54:25.079Z,99735.02
2023-12-29T18:56:53.185Z,99739.31
2023-12-29T18:59:21.512Z,99737.07
2023-12-29T19:01:51.913Z,99735.07
2023-12-29T19:04:20.970Z,99749.92
2023-12-29T19:06:49.172Z,99751.58
2023-12-29T19:09:17.411Z,99741.31
2023-12-29T19:11:45.615Z,99733.91
2023-12-29T19:14:14.829Z,99732.39
2023-12-29T19:16:43.041Z,99730.64
2023-12-29T19:19:11.204Z,99730.17
2023-12-29T19:21:49.853Z,99726.77
2023-12-29T19:24:22.250Z,99723.42
2023-12-29T19:26:50.874Z,99716.25
2023-12-29T19:29:18.974Z,99710.24
2023-12-29T19:31:47.173Z,99700.89
2023-12-29T19:34:16.735Z,99696.33
2023-12-29T19:36:44.965Z,99695.35
2023-12-29T19:39:13.058Z,99699.95
2023-12-29T19:41:41.187Z,99697.71
2023-12-29T19:44:09.275Z,99694.38
2023-12-29T19:46:43.572Z,99688.40
2023-12-29T19:49:11.962Z,99690.20
2023-12-29T19:51:40.227Z,99688.77
2023-12-29T19:54:08.964Z,99685.02
2023-12-29T19:56:37.037Z,99688.91
2023-12-29T19:59:05.182Z,99693.89
2023-12-29T20:01:41.023Z,99692.28
2023-12-29T20:04:13.388Z,99689.48
2023-12-29T20:06:41.667Z,99690.04
2023-12-29T20:09:09.822Z,99695.05
2023-12-29T20:11:41.445Z,99696.89
2023-12-29T20:14:13.565Z,99699.64
2023-12-29T20:16:41.827Z,99703.53
2023-12-29T20:19:12.666Z,99704.98
2023-12-29T20:21:40.937Z,99703.54
2023-12-29T20:24:11.169Z,99709.33
2023-12-29T20:26:40.140Z,99708.84
2023-12-29T20:29:08.834Z,99712.16
2023-12-29T20:31:37.194Z,99716.52
2023-12-29T20:34:05.765Z,99717.56
2023-12-29T20:36:34.130Z,99719.09
2023-12-29T20:39:03.813Z,99718.27
2023-12-29T20:41:32.453Z,99715.42
2023-12-29T20:44:00.602Z,99709.97
2023-12-29T20:46:28.870Z,99705.60
2023-12-29T20:48:57.136Z,99716.64
2023-12-29T20:51:25.851Z,99715.31
2023-12-29T20:53:53.956Z,99718.58
2023-12-29T20:56:22.746Z,99716.73
2023-12-29T20:58:54.424Z,99721.81
2023-12-29T21:01:24.815Z,99717.45
2023-12-29T21:03:53.211Z,99722.73
2023-12-29T21:06:21.602Z,99721.29
2023-12-29T21:08:50.615Z,99718.84
2023-12-29T21:11:19.754Z,99720.52
2023-12-29T21:13:48.153Z,99718.42
2023-12-29T21:16:20.109Z,99712.22
2023-12-29T21:18:50.986Z,99711.10
2023-12-29T21:21:19.439Z,99715.48
2023-12-29T21:23:47.629Z,99711.96
2023-12-29T21:26:22.375Z,99715.43
2023-12-29T21:28:50.903Z,99713.17
2023-12-29T21:31:19.696Z,99710.55
2023-12-29T21:33:48.526Z,99721.38
2023-12-29T21:36:23.897Z,99712.04
2023-12-29T21:38:52.961Z,99723.70
2023-12-29T21:41:21.260Z,99721.98
2023-12-29T21:43:49.911Z,99722.60
2023-12-29T21:46:18.128Z,99723.11
2023-12-29T21:48:46.692Z,99721.48
2023-12-29T21:51:15.107Z,99722.45
2023-12-29T21:53:43.995Z,99725.71
2023-12-29T21:56:12.115Z,99718.00
2023-12-29T21:58:40.338Z,99718.59
2023-12-29T22:01:40.586Z,99714.05
2023-12-29T22:04:10.341Z,99716.27
2023-12-29T22:06:39.654Z,99715.86
2023-12-29T22:09:07.887Z,99713.05
2023-12-29T22:11:36.051Z,99710.57
2023-12-29T22:14:05.906Z,99712.54
2023-12-29T22:16:34.032Z,99706.34
2023-12-29T22:19:02.770Z,99706.86
2023-12-29T22:21:30.932Z,99699.86
2023-12-29T22:23:59.415Z,99700.77
2023-12-29T22:26:27.648Z,99698.41
2023-12-29T22:28:55.714Z,99693.98
2023-12-29T22:31:23.849Z,99688.21
2023-12-29T22:33:52.219Z,99687.34
2023-12-29T22:36:21.166Z,99686.05
2023-12-29T22:38:50.015Z,99683.87
2023-12-29T22:41:19.721Z,99686.20
2023-12-29T22:43:48.047Z,99680.86
2023-12-29T22:46:20.775Z,99678.87
2023-12-29T22:48:51.555Z,99673.32
2023-12-29T22:51:19.673Z,99668.95
2023-12-29T22:53:47.678Z,99663.46
2023-12-29T22:56:15.768Z,99667.35
2023-12-29T22:58:45.205Z,99659.59
2023-12-29T23:01:13.527Z,99667.30
2023-12-29T23:03:41.825Z,99668.39
2023-12-29T23:06:10.318Z,99668.66
2023-12-29T23:08:39.375Z,99666.65
2023-12-29T23:11:09.711Z,99659.14
2023-12-29T23:13:38.305Z,99663.85
2023-12-29T23:16:06.760Z,99661.08
2023-12-29T23:18:34.985Z,99661.95
2023-12-29T23:21:03.173Z,99661.80
2023-12-29T23:23:31.277Z,99661.34
2023-12-29T23:26:02.652Z,99659.11
2023-12-29T23:28:31.394Z,99657.13
2023-12-29T23:31:00.206Z,99657.55
2023-12-29T23:33:28.525Z,99654.42
2023-12-29T23:35:57.685Z,99654.42
2023-12-29T23:38:25.795Z,99652.46
2023-12-29T23:40:53.959Z,99654.55
2023-12-29T23:43:22.065Z,99655.88
2023-12-29T23:45:50.749Z,99654.27
2023-12-29T23:48:20.545Z,99657.11
2023-12-29T23:50:49.107Z,99657.87
2023-12-29T23:53:17.238Z,99659.15
2023-12-29T23:55:45.428Z,99655.38
2023-12-29T23:58:14.040Z,99651.74
